sensor_id;sensor_type;location;lat;lon;timestamp;P1;durP1;ratioP1;P2;durP2;ratioP2
63320;SDS011;49449;48.800;9.534;2023-11-19T00:00:07;3.72;;;3.42;;
63320;SDS011;49449;48.800;9.534;2023-11-19T00:02:38;3.70;;;3.28;;
63320;SDS011;49449;48.800;9.534;2023-11-19T00:05:08;3.95;;;3.53;;
63320;SDS011;49449;48.800;9.534;2023-11-19T00:07:37;3.70;;;3.08;;
63320;SDS011;49449;48.800;9.534;2023-11-19T00:10:07;4.80;;;3.75;;
63320;SDS011;49449;48.800;9.534;2023-11-19T00:12:36;5.57;;;4.38;;
63320;SDS011;49449;48.800;9.534;2023-11-19T00:15:05;3.47;;;3.15;;
63320;SDS011;49449;48.800;9.534;2023-11-19T00:17:37;4.03;;;3.25;;
63320;SDS011;49449;48.800;9.534;2023-11-19T00:20:08;3.75;;;2.88;;
63320;SDS011;49449;48.800;9.534;2023-11-19T00:22:37;3.22;;;2.90;;
63320;SDS011;49449;48.800;9.534;2023-11-19T00:25:13;3.92;;;3.42;;
63320;SDS011;49449;48.800;9.534;2023-11-19T00:27:42;3.83;;;3.15;;
63320;SDS011;49449;48.800;9.534;2023-11-19T00:30:11;3.13;;;2.92;;
63320;SDS011;49449;48.800;9.534;2023-11-19T00:32:40;3.20;;;2.72;;
63320;SDS011;49449;48.800;9.534;2023-11-19T00:35:10;3.10;;;2.80;;
63320;SDS011;49449;48.800;9.534;2023-11-19T00:37:40;2.67;;;2.47;;
63320;SDS011;49449;48.800;9.534;2023-11-19T00:40:09;3.90;;;3.40;;
63320;SDS011;49449;48.800;9.534;2023-11-19T00:42:37;3.55;;;3.05;;
63320;SDS011;49449;48.800;9.534;2023-11-19T00:45:05;2.40;;;2.10;;
63320;SDS011;49449;48.800;9.534;2023-11-19T00:47:36;4.13;;;2.53;;
63320;SDS011;49449;48.800;9.534;2023-11-19T00:50:04;2.55;;;2.03;;
63320;SDS011;49449;48.800;9.534;2023-11-19T00:52:37;2.10;;;1.95;;
63320;SDS011;49449;48.800;9.534;2023-11-19T00:55:05;2.05;;;1.95;;
63320;SDS011;49449;48.800;9.534;2023-11-19T00:57:33;2.47;;;1.50;;
63320;SDS011;49449;48.800;9.534;2023-11-19T01:00:02;2.20;;;1.75;;
63320;SDS011;49449;48.800;9.534;2023-11-19T01:02:35;2.22;;;2.13;;
63320;SDS011;49449;48.800;9.534;2023-11-19T01:05:03;2.50;;;2.33;;
63320;SDS011;49449;48.800;9.534;2023-11-19T01:07:31;2.10;;;2.00;;
63320;SDS011;49449;48.800;9.534;2023-11-19T01:10:01;2.85;;;1.60;;
63320;SDS011;49449;48.800;9.534;2023-11-19T01:12:29;1.80;;;1.70;;
63320;SDS011;49449;48.800;9.534;2023-11-19T01:14:57;2.42;;;1.90;;
63320;SDS011;49449;48.800;9.534;2023-11-19T01:17:25;2.38;;;1.77;;
63320;SDS011;49449;48.800;9.534;2023-11-19T01:19:53;1.70;;;1.60;;
63320;SDS011;49449;48.800;9.534;2023-11-19T01:22:21;2.13;;;1.90;;
63320;SDS011;49449;48.800;9.534;2023-11-19T01:24:49;1.85;;;1.75;;
63320;SDS011;49449;48.800;9.534;2023-11-19T01:27:19;2.00;;;1.90;;
63320;SDS011;49449;48.800;9.534;2023-11-19T01:29:47;2.08;;;1.70;;
63320;SDS011;49449;48.800;9.534;2023-11-19T01:32:15;2.03;;;1.60;;
63320;SDS011;49449;48.800;9.534;2023-11-19T01:34:43;2.13;;;2.00;;
63320;SDS011;49449;48.800;9.534;2023-11-19T01:37:11;1.70;;;1.55;;
63320;SDS011;49449;48.800;9.534;2023-11-19T01:39:43;1.75;;;1.60;;
63320;SDS011;49449;48.800;9.534;2023-11-19T01:42:11;2.33;;;1.70;;
63320;SDS011;49449;48.800;9.534;2023-11-19T01:44:41;1.52;;;1.42;;
63320;SDS011;49449;48.800;9.534;2023-11-19T01:47:08;1.70;;;1.60;;
63320;SDS011;49449;48.800;9.534;2023-11-19T01:49:36;1.60;;;1.48;;
63320;SDS011;49449;48.800;9.534;2023-11-19T01:52:04;1.60;;;1.50;;
63320;SDS011;49449;48.800;9.534;2023-11-19T01:54:33;1.60;;;1.50;;
63320;SDS011;49449;48.800;9.534;2023-11-19T01:57:00;1.90;;;1.70;;
63320;SDS011;49449;48.800;9.534;2023-11-19T01:59:28;2.38;;;1.60;;
63320;SDS011;49449;48.800;9.534;2023-11-19T02:01:57;1.83;;;1.73;;
63320;SDS011;49449;48.800;9.534;2023-11-19T02:04:26;1.70;;;1.60;;
63320;SDS011;49449;48.800;9.534;2023-11-19T02:06:54;2.17;;;2.05;;
63320;SDS011;49449;48.800;9.534;2023-11-19T02:09:25;1.83;;;1.48;;
63320;SDS011;49449;48.800;9.534;2023-11-19T02:11:53;1.70;;;1.30;;
63320;SDS011;49449;48.800;9.534;2023-11-19T02:14:22;1.92;;;1.83;;
63320;SDS011;49449;48.800;9.534;2023-11-19T02:16:53;1.50;;;1.38;;
63320;SDS011;49449;48.800;9.534;2023-11-19T02:19:22;1.83;;;1.67;;
63320;SDS011;49449;48.800;9.534;2023-11-19T02:21:50;2.42;;;1.98;;
63320;SDS011;49449;48.800;9.534;2023-11-19T02:24:17;1.65;;;1.55;;
63320;SDS011;49449;48.800;9.534;2023-11-19T02:26:51;2.25;;;1.48;;
63320;SDS011;49449;48.800;9.534;2023-11-19T02:29:28;2.47;;;1.58;;
63320;SDS011;49449;48.800;9.534;2023-11-19T02:31:55;1.70;;;1.60;;
63320;SDS011;49449;48.800;9.534;2023-11-19T02:34:23;1.38;;;1.38;;
63320;SDS011;49449;48.800;9.534;2023-11-19T02:36:51;1.35;;;1.25;;
63320;SDS011;49449;48.800;9.534;2023-11-19T02:39:19;1.90;;;1.80;;
63320;SDS011;49449;48.800;9.534;2023-11-19T02:41:48;1.55;;;1.42;;
63320;SDS011;49449;48.800;9.534;2023-11-19T02:44:17;2.10;;;2.00;;
63320;SDS011;49449;48.800;9.534;2023-11-19T02:46:46;1.67;;;1.58;;
63320;SDS011;49449;48.800;9.534;2023-11-19T02:49:14;1.80;;;1.70;;
63320;SDS011;49449;48.800;9.534;2023-11-19T02:51:42;1.83;;;1.73;;
63320;SDS011;49449;48.800;9.534;2023-11-19T02:54:10;1.30;;;1.30;;
63320;SDS011;49449;48.800;9.534;2023-11-19T02:56:41;1.58;;;1.48;;
63320;SDS011;49449;48.800;9.534;2023-11-19T02:59:09;1.75;;;1.65;;
63320;SDS011;49449;48.800;9.534;2023-11-19T03:01:54;2.03;;;1.92;;
63320;SDS011;49449;48.800;9.534;2023-11-19T03:04:22;2.22;;;2.13;;
63320;SDS011;49449;48.800;9.534;2023-11-19T03:06:50;2.13;;;1.50;;
63320;SDS011;49449;48.800;9.534;2023-11-19T03:09:19;1.90;;;1.80;;
63320;SDS011;49449;48.800;9.534;2023-11-19T03:11:47;1.50;;;1.40;;
63320;SDS011;49449;48.800;9.534;2023-11-19T03:14:15;1.98;;;1.85;;
63320;SDS011;49449;48.800;9.534;2023-11-19T03:16:45;1.60;;;1.50;;
63320;SDS011;49449;48.800;9.534;2023-11-19T03:19:17;1.85;;;1.75;;
63320;SDS011;49449;48.800;9.534;2023-11-19T03:21:47;2.15;;;1.95;;
63320;SDS011;49449;48.800;9.534;2023-11-19T03:24:15;1.92;;;1.75;;
63320;SDS011;49449;48.800;9.534;2023-11-19T03:26:47;2.95;;;2.03;;
63320;SDS011;49449;48.800;9.534;2023-11-19T03:29:16;1.85;;;1.75;;
63320;SDS011;49449;48.800;9.534;2023-11-19T03:31:44;2.28;;;1.83;;
63320;SDS011;49449;48.800;9.534;2023-11-19T03:34:12;1.77;;;1.67;;
63320;SDS011;49449;48.800;9.534;2023-11-19T03:36:41;1.80;;;1.67;;
63320;SDS011;49449;48.800;9.534;2023-11-19T03:39:09;5.25;;;1.80;;
63320;SDS011;49449;48.800;9.534;2023-11-19T03:41:37;2.70;;;2.08;;
63320;SDS011;49449;48.800;9.534;2023-11-19T03:44:07;7.32;;;3.67;;
63320;SDS011;49449;48.800;9.534;2023-11-19T03:46:35;12.02;;;4.25;;
63320;SDS011;49449;48.800;9.534;2023-11-19T03:49:03;6.80;;;2.80;;
63320;SDS011;49449;48.800;9.534;2023-11-19T03:51:33;4.25;;;2.45;;
63320;SDS011;49449;48.800;9.534;2023-11-19T03:54:02;3.92;;;2.03;;
63320;SDS011;49449;48.800;9.534;2023-11-19T03:56:30;2.13;;;1.60;;
63320;SDS011;49449;48.800;9.534;2023-11-19T03:58:59;2.13;;;1.92;;
63320;SDS011;49449;48.800;9.534;2023-11-19T04:01:27;2.85;;;1.88;;
63320;SDS011;49449;48.800;9.534;2023-11-19T04:03:55;1.80;;;1.70;;
63320;SDS011;49449;48.800;9.534;2023-11-19T04:06:23;1.55;;;1.33;;
63320;SDS011;49449;48.800;9.534;2023-11-19T04:08:50;1.15;;;1.15;;
63320;SDS011;49449;48.800;9.534;2023-11-19T04:11:19;1.05;;;1.05;;
63320;SDS011;49449;48.800;9.534;2023-11-19T04:13:47;0.95;;;0.95;;
63320;SDS011;49449;48.800;9.534;2023-11-19T04:16:15;1.00;;;1.00;;
63320;SDS011;49449;48.800;9.534;2023-11-19T04:18:43;0.68;;;0.68;;
63320;SDS011;49449;48.800;9.534;2023-11-19T04:21:11;0.90;;;0.90;;
63320;SDS011;49449;48.800;9.534;2023-11-19T04:23:38;1.33;;;1.33;;
63320;SDS011;49449;48.800;9.534;2023-11-19T04:26:06;1.40;;;1.40;;
63320;SDS011;49449;48.800;9.534;2023-11-19T04:28:37;0.90;;;0.90;;
63320;SDS011;49449;48.800;9.534;2023-11-19T04:31:05;0.85;;;0.68;;
63320;SDS011;49449;48.800;9.534;2023-11-19T04:33:32;0.77;;;0.77;;
63320;SDS011;49449;48.800;9.534;2023-11-19T04:36:00;1.40;;;1.40;;
63320;SDS011;49449;48.800;9.534;2023-11-19T04:38:28;1.40;;;1.40;;
63320;SDS011;49449;48.800;9.534;2023-11-19T04:40:56;1.20;;;1.10;;
63320;SDS011;49449;48.800;9.534;2023-11-19T04:43:24;1.17;;;1.17;;
63320;SDS011;49449;48.800;9.534;2023-11-19T04:45:53;1.63;;;1.52;;
63320;SDS011;49449;48.800;9.534;2023-11-19T04:48:21;1.75;;;0.93;;
63320;SDS011;49449;48.800;9.534;2023-11-19T04:50:49;0.98;;;0.98;;
63320;SDS011;49449;48.800;9.534;2023-11-19T04:53:18;2.17;;;1.15;;
63320;SDS011;49449;48.800;9.534;2023-11-19T04:55:46;1.10;;;1.00;;
63320;SDS011;49449;48.800;9.534;2023-11-19T04:58:14;1.35;;;0.95;;
63320;SDS011;49449;48.800;9.534;2023-11-19T05:00:42;0.95;;;0.88;;
63320;SDS011;49449;48.800;9.534;2023-11-19T05:03:11;0.68;;;0.68;;
63320;SDS011;49449;48.800;9.534;2023-11-19T05:05:39;1.85;;;0.88;;
63320;SDS011;49449;48.800;9.534;2023-11-19T05:08:06;1.00;;;1.00;;
63320;SDS011;49449;48.800;9.534;2023-11-19T05:10:34;1.08;;;1.08;;
63320;SDS011;49449;48.800;9.534;2023-11-19T05:13:03;0.88;;;0.88;;
63320;SDS011;49449;48.800;9.534;2023-11-19T05:15:30;0.65;;;0.65;;
63320;SDS011;49449;48.800;9.534;2023-11-19T05:17:59;1.02;;;0.93;;
63320;SDS011;49449;48.800;9.534;2023-11-19T05:20:28;1.00;;;1.00;;
63320;SDS011;49449;48.800;9.534;2023-11-19T05:22:56;0.80;;;0.80;;
63320;SDS011;49449;48.800;9.534;2023-11-19T05:25:26;0.82;;;0.82;;
63320;SDS011;49449;48.800;9.534;2023-11-19T05:27:54;0.47;;;0.47;;
63320;SDS011;49449;48.800;9.534;2023-11-19T05:30:22;0.55;;;0.55;;
63320;SDS011;49449;48.800;9.534;2023-11-19T05:32:50;0.70;;;0.70;;
63320;SDS011;49449;48.800;9.534;2023-11-19T05:35:18;0.60;;;0.60;;
63320;SDS011;49449;48.800;9.534;2023-11-19T05:37:47;0.43;;;0.43;;
63320;SDS011;49449;48.800;9.534;2023-11-19T05:40:16;0.90;;;0.70;;
63320;SDS011;49449;48.800;9.534;2023-11-19T05:42:45;0.60;;;0.60;;
63320;SDS011;49449;48.800;9.534;2023-11-19T05:45:12;0.60;;;0.60;;
63320;SDS011;49449;48.800;9.534;2023-11-19T05:47:41;0.60;;;0.60;;
63320;SDS011;49449;48.800;9.534;2023-11-19T05:50:09;0.82;;;0.60;;
63320;SDS011;49449;48.800;9.534;2023-11-19T05:52:37;1.08;;;0.98;;
63320;SDS011;49449;48.800;9.534;2023-11-19T05:55:07;0.38;;;0.38;;
63320;SDS011;49449;48.800;9.534;2023-11-19T05:57:36;0.63;;;0.63;;
63320;SDS011;49449;48.800;9.534;2023-11-19T06:00:07;0.95;;;0.95;;
63320;SDS011;49449;48.800;9.534;2023-11-19T06:02:36;1.02;;;1.02;;
63320;SDS011;49449;48.800;9.534;2023-11-19T06:05:04;1.08;;;0.82;;
63320;SDS011;49449;48.800;9.534;2023-11-19T06:07:33;0.50;;;0.50;;
63320;SDS011;49449;48.800;9.534;2023-11-19T06:10:01;0.65;;;0.65;;
63320;SDS011;49449;48.800;9.534;2023-11-19T06:12:32;0.55;;;0.47;;
63320;SDS011;49449;48.800;9.534;2023-11-19T06:15:04;1.00;;;1.00;;
63320;SDS011;49449;48.800;9.534;2023-11-19T06:17:34;0.47;;;0.47;;
63320;SDS011;49449;48.800;9.534;2023-11-19T06:20:03;0.52;;;0.52;;
63320;SDS011;49449;48.800;9.534;2023-11-19T06:22:31;0.60;;;0.60;;
63320;SDS011;49449;48.800;9.534;2023-11-19T06:24:59;0.38;;;0.38;;
63320;SDS011;49449;48.800;9.534;2023-11-19T06:27:27;0.30;;;0.30;;
63320;SDS011;49449;48.800;9.534;2023-11-19T06:29:56;0.60;;;0.60;;
63320;SDS011;49449;48.800;9.534;2023-11-19T06:32:24;0.95;;;0.95;;
63320;SDS011;49449;48.800;9.534;2023-11-19T06:34:52;0.75;;;0.75;;
63320;SDS011;49449;48.800;9.534;2023-11-19T06:37:19;0.52;;;0.52;;
63320;SDS011;49449;48.800;9.534;2023-11-19T06:39:48;0.50;;;0.50;;
63320;SDS011;49449;48.800;9.534;2023-11-19T06:42:16;0.47;;;0.47;;
63320;SDS011;49449;48.800;9.534;2023-11-19T06:44:44;1.10;;;1.10;;
63320;SDS011;49449;48.800;9.534;2023-11-19T06:47:13;0.73;;;0.73;;
63320;SDS011;49449;48.800;9.534;2023-11-19T06:49:43;0.77;;;0.57;;
63320;SDS011;49449;48.800;9.534;2023-11-19T06:52:11;0.57;;;0.57;;
63320;SDS011;49449;48.800;9.534;2023-11-19T06:54:38;0.82;;;0.52;;
63320;SDS011;49449;48.800;9.534;2023-11-19T06:57:06;0.90;;;0.90;;
63320;SDS011;49449;48.800;9.534;2023-11-19T06:59:35;0.40;;;0.40;;
63320;SDS011;49449;48.800;9.534;2023-11-19T07:02:03;0.68;;;0.68;;
63320;SDS011;49449;48.800;9.534;2023-11-19T07:04:32;1.23;;;1.20;;
63320;SDS011;49449;48.800;9.534;2023-11-19T07:07:00;0.70;;;0.70;;
63320;SDS011;49449;48.800;9.534;2023-11-19T07:09:28;0.65;;;0.65;;
63320;SDS011;49449;48.800;9.534;2023-11-19T07:11:56;1.20;;;0.90;;
63320;SDS011;49449;48.800;9.534;2023-11-19T07:14:23;1.27;;;0.77;;
63320;SDS011;49449;48.800;9.534;2023-11-19T07:16:51;1.27;;;1.10;;
63320;SDS011;49449;48.800;9.534;2023-11-19T07:19:19;0.82;;;0.80;;
63320;SDS011;49449;48.800;9.534;2023-11-19T07:21:49;0.52;;;0.52;;
63320;SDS011;49449;48.800;9.534;2023-11-19T07:24:16;0.45;;;0.45;;
63320;SDS011;49449;48.800;9.534;2023-11-19T07:26:45;0.68;;;0.68;;
63320;SDS011;49449;48.800;9.534;2023-11-19T07:29:14;0.57;;;0.57;;
63320;SDS011;49449;48.800;9.534;2023-11-19T07:31:53;0.57;;;0.57;;
63320;SDS011;49449;48.800;9.534;2023-11-19T07:34:22;0.63;;;0.63;;
63320;SDS011;49449;48.800;9.534;2023-11-19T07:36:51;0.60;;;0.60;;
63320;SDS011;49449;48.800;9.534;2023-11-19T07:39:19;1.45;;;1.45;;
63320;SDS011;49449;48.800;9.534;2023-11-19T07:41:47;1.10;;;1.00;;
63320;SDS011;49449;48.800;9.534;2023-11-19T07:44:15;2.67;;;1.05;;
63320;SDS011;49449;48.800;9.534;2023-11-19T07:46:42;0.75;;;0.75;;
63320;SDS011;49449;48.800;9.534;2023-11-19T07:49:11;0.45;;;0.45;;
63320;SDS011;49449;48.800;9.534;2023-11-19T07:51:38;1.10;;;1.10;;
63320;SDS011;49449;48.800;9.534;2023-11-19T07:54:08;1.15;;;1.10;;
63320;SDS011;49449;48.800;9.534;2023-11-19T07:56:35;1.17;;;1.17;;
63320;SDS011;49449;48.800;9.534;2023-11-19T07:59:03;0.85;;;0.55;;
63320;SDS011;49449;48.800;9.534;2023-11-19T08:01:31;0.73;;;0.73;;
63320;SDS011;49449;48.800;9.534;2023-11-19T08:03:59;1.10;;;1.10;;
63320;SDS011;49449;48.800;9.534;2023-11-19T08:06:28;0.75;;;0.75;;
63320;SDS011;49449;48.800;9.534;2023-11-19T08:08:56;0.63;;;0.63;;
63320;SDS011;49449;48.800;9.534;2023-11-19T08:11:25;1.15;;;1.15;;
63320;SDS011;49449;48.800;9.534;2023-11-19T08:13:52;0.73;;;0.73;;
63320;SDS011;49449;48.800;9.534;2023-11-19T08:16:20;1.95;;;0.73;;
63320;SDS011;49449;48.800;9.534;2023-11-19T08:18:48;1.08;;;1.08;;
63320;SDS011;49449;48.800;9.534;2023-11-19T08:21:15;1.40;;;0.70;;
63320;SDS011;49449;48.800;9.534;2023-11-19T08:23:43;1.55;;;1.08;;
63320;SDS011;49449;48.800;9.534;2023-11-19T08:26:11;0.82;;;0.82;;
63320;SDS011;49449;48.800;9.534;2023-11-19T08:28:40;0.90;;;0.90;;
63320;SDS011;49449;48.800;9.534;2023-11-19T08:31:08;0.80;;;0.80;;
63320;SDS011;49449;48.800;9.534;2023-11-19T08:33:36;0.60;;;0.60;;
63320;SDS011;49449;48.800;9.534;2023-11-19T08:36:04;1.15;;;0.82;;
63320;SDS011;49449;48.800;9.534;2023-11-19T08:38:32;0.93;;;0.93;;
63320;SDS011;49449;48.800;9.534;2023-11-19T08:41:00;1.13;;;1.13;;
63320;SDS011;49449;48.800;9.534;2023-11-19T08:43:28;0.95;;;0.95;;
63320;SDS011;49449;48.800;9.534;2023-11-19T08:45:58;1.13;;;1.00;;
63320;SDS011;49449;48.800;9.534;2023-11-19T08:48:26;1.23;;;1.23;;
63320;SDS011;49449;48.800;9.534;2023-11-19T08:50:54;1.33;;;1.33;;
63320;SDS011;49449;48.800;9.534;2023-11-19T08:53:22;2.00;;;0.70;;
63320;SDS011;49449;48.800;9.534;2023-11-19T08:55:49;0.75;;;0.75;;
63320;SDS011;49449;48.800;9.534;2023-11-19T08:58:17;0.63;;;0.63;;
63320;SDS011;49449;48.800;9.534;2023-11-19T09:00:45;1.35;;;1.25;;
63320;SDS011;49449;48.800;9.534;2023-11-19T09:03:14;0.82;;;0.82;;
63320;SDS011;49449;48.800;9.534;2023-11-19T09:05:42;0.63;;;0.63;;
63320;SDS011;49449;48.800;9.534;2023-11-19T09:08:10;1.20;;;1.20;;
63320;SDS011;49449;48.800;9.534;2023-11-19T09:10:38;1.45;;;1.45;;
63320;SDS011;49449;48.800;9.534;2023-11-19T09:13:05;1.00;;;1.00;;
63320;SDS011;49449;48.800;9.534;2023-11-19T09:15:34;1.52;;;1.40;;
63320;SDS011;49449;48.800;9.534;2023-11-19T09:18:01;0.80;;;0.70;;
63320;SDS011;49449;48.800;9.534;2023-11-19T09:20:32;0.80;;;0.65;;
63320;SDS011;49449;48.800;9.534;2023-11-19T09:23:04;1.52;;;1.42;;
63320;SDS011;49449;48.800;9.534;2023-11-19T09:25:32;1.30;;;0.82;;
63320;SDS011;49449;48.800;9.534;2023-11-19T09:28:03;0.82;;;0.82;;
63320;SDS011;49449;48.800;9.534;2023-11-19T09:30:30;1.35;;;0.77;;
63320;SDS011;49449;48.800;9.534;2023-11-19T09:33:00;0.75;;;0.75;;
63320;SDS011;49449;48.800;9.534;2023-11-19T09:35:28;0.82;;;0.82;;
63320;SDS011;49449;48.800;9.534;2023-11-19T09:37:57;1.17;;;1.17;;
63320;SDS011;49449;48.800;9.534;2023-11-19T09:40:25;1.00;;;0.88;;
63320;SDS011;49449;48.800;9.534;2023-11-19T09:42:54;0.65;;;0.65;;
63320;SDS011;49449;48.800;9.534;2023-11-19T09:45:22;0.95;;;0.93;;
63320;SDS011;49449;48.800;9.534;2023-11-19T09:47:54;1.13;;;0.70;;
63320;SDS011;49449;48.800;9.534;2023-11-19T09:50:24;0.93;;;0.93;;
63320;SDS011;49449;48.800;9.534;2023-11-19T09:52:52;1.75;;;1.17;;
63320;SDS011;49449;48.800;9.534;2023-11-19T09:55:21;0.95;;;0.90;;
63320;SDS011;49449;48.800;9.534;2023-11-19T09:57:49;1.58;;;1.23;;
63320;SDS011;49449;48.800;9.534;2023-11-19T10:00:20;0.80;;;0.80;;
63320;SDS011;49449;48.800;9.534;2023-11-19T10:02:48;0.88;;;0.75;;
63320;SDS011;49449;48.800;9.534;2023-11-19T10:05:17;1.25;;;1.25;;
63320;SDS011;49449;48.800;9.534;2023-11-19T10:07:48;0.80;;;0.80;;
63320;SDS011;49449;48.800;9.534;2023-11-19T10:10:15;1.02;;;1.00;;
63320;SDS011;49449;48.800;9.534;2023-11-19T10:12:46;1.15;;;1.15;;
63320;SDS011;49449;48.800;9.534;2023-11-19T10:15:19;1.05;;;0.90;;
63320;SDS011;49449;48.800;9.534;2023-11-19T10:17:48;1.08;;;1.08;;
63320;SDS011;49449;48.800;9.534;2023-11-19T10:20:17;1.00;;;0.98;;
63320;SDS011;49449;48.800;9.534;2023-11-19T10:22:44;0.70;;;0.70;;
63320;SDS011;49449;48.800;9.534;2023-11-19T10:25:22;0.70;;;0.70;;
63320;SDS011;49449;48.800;9.534;2023-11-19T10:27:52;0.98;;;0.90;;
63320;SDS011;49449;48.800;9.534;2023-11-19T10:30:20;1.33;;;1.17;;
63320;SDS011;49449;48.800;9.534;2023-11-19T10:33:04;2.00;;;1.10;;
63320;SDS011;49449;48.800;9.534;2023-11-19T10:35:33;0.82;;;0.65;;
63320;SDS011;49449;48.800;9.534;2023-11-19T10:38:03;1.08;;;1.08;;
63320;SDS011;49449;48.800;9.534;2023-11-19T10:40:41;1.30;;;1.20;;
63320;SDS011;49449;48.800;9.534;2023-11-19T10:43:10;0.60;;;0.60;;
63320;SDS011;49449;48.800;9.534;2023-11-19T10:45:38;0.75;;;0.75;;
63320;SDS011;49449;48.800;9.534;2023-11-19T10:48:06;0.80;;;0.77;;
63320;SDS011;49449;48.800;9.534;2023-11-19T10:50:34;0.80;;;0.80;;
63320;SDS011;49449;48.800;9.534;2023-11-19T10:53:03;0.60;;;0.60;;
63320;SDS011;49449;48.800;9.534;2023-11-19T10:55:32;1.48;;;1.17;;
63320;SDS011;49449;48.800;9.534;2023-11-19T10:58:02;1.48;;;1.40;;
63320;SDS011;49449;48.800;9.534;2023-11-19T11:00:37;0.90;;;0.90;;
63320;SDS011;49449;48.800;9.534;2023-11-19T11:03:09;0.88;;;0.88;;
63320;SDS011;49449;48.800;9.534;2023-11-19T11:05:41;1.52;;;1.50;;
63320;SDS011;49449;48.800;9.534;2023-11-19T11:08:10;1.25;;;1.15;;
63320;SDS011;49449;48.800;9.534;2023-11-19T11:10:39;1.42;;;0.90;;
63320;SDS011;49449;48.800;9.534;2023-11-19T11:13:14;1.58;;;1.48;;
63320;SDS011;49449;48.800;9.534;2023-11-19T11:15:44;1.25;;;1.25;;
63320;SDS011;49449;48.800;9.534;2023-11-19T11:18:13;1.05;;;1.05;;
63320;SDS011;49449;48.800;9.534;2023-11-19T11:20:41;1.52;;;1.42;;
63320;SDS011;49449;48.800;9.534;2023-11-19T11:23:36;1.30;;;1.20;;
63320;SDS011;49449;48.800;9.534;2023-11-19T11:29:10;1.00;;;1.00;;
63320;SDS011;49449;48.800;9.534;2023-11-19T11:31:48;1.33;;;1.30;;
63320;SDS011;49449;48.800;9.534;2023-11-19T11:34:39;1.48;;;1.38;;
63320;SDS011;49449;48.800;9.534;2023-11-19T11:37:18;4.03;;;3.05;;
63320;SDS011;49449;48.800;9.534;2023-11-19T11:39:50;7.68;;;4.47;;
63320;SDS011;49449;48.800;9.534;2023-11-19T11:42:30;3.38;;;2.63;;
63320;SDS011;49449;48.800;9.534;2023-11-19T11:50:48;1.40;;;1.40;;
63320;SDS011;49449;48.800;9.534;2023-11-19T11:53:17;1.50;;;1.40;;
63320;SDS011;49449;48.800;9.534;2023-11-19T11:55:53;1.77;;;1.50;;
63320;SDS011;49449;48.800;9.534;2023-11-19T11:58:25;2.08;;;1.60;;
63320;SDS011;49449;48.800;9.534;2023-11-19T12:00:54;1.65;;;1.55;;
63320;SDS011;49449;48.800;9.534;2023-11-19T12:03:26;1.48;;;1.38;;
63320;SDS011;49449;48.800;9.534;2023-11-19T12:05:56;2.13;;;1.80;;
63320;SDS011;49449;48.800;9.534;2023-11-19T12:08:26;2.08;;;1.17;;
63320;SDS011;49449;48.800;9.534;2023-11-19T12:10:55;1.92;;;1.52;;
63320;SDS011;49449;48.800;9.534;2023-11-19T12:13:29;1.55;;;1.30;;
63320;SDS011;49449;48.800;9.534;2023-11-19T12:16:13;2.45;;;1.50;;
63320;SDS011;49449;48.800;9.534;2023-11-19T12:18:42;1.00;;;0.90;;
63320;SDS011;49449;48.800;9.534;2023-11-19T12:21:11;1.38;;;1.27;;
63320;SDS011;49449;48.800;9.534;2023-11-19T12:23:45;1.92;;;1.60;;
63320;SDS011;49449;48.800;9.534;2023-11-19T12:26:35;1.55;;;1.33;;
63320;SDS011;49449;48.800;9.534;2023-11-19T12:29:05;1.13;;;1.00;;
63320;SDS011;49449;48.800;9.534;2023-11-19T12:31:34;1.35;;;1.25;;
63320;SDS011;49449;48.800;9.534;2023-11-19T12:34:06;2.13;;;1.42;;
63320;SDS011;49449;48.800;9.534;2023-11-19T12:36:38;1.48;;;1.35;;
63320;SDS011;49449;48.800;9.534;2023-11-19T12:39:07;1.20;;;0.90;;
63320;SDS011;49449;48.800;9.534;2023-11-19T12:41:50;1.00;;;0.90;;
63320;SDS011;49449;48.800;9.534;2023-11-19T12:44:18;2.60;;;1.30;;
63320;SDS011;49449;48.800;9.534;2023-11-19T12:46:46;1.42;;;1.17;;
63320;SDS011;49449;48.800;9.534;2023-11-19T12:49:27;1.58;;;1.00;;
63320;SDS011;49449;48.800;9.534;2023-11-19T12:51:55;0.85;;;0.70;;
63320;SDS011;49449;48.800;9.534;2023-11-19T12:54:31;2.05;;;1.05;;
63320;SDS011;49449;48.800;9.534;2023-11-19T12:57:00;1.02;;;0.90;;
63320;SDS011;49449;48.800;9.534;2023-11-19T12:59:28;1.40;;;1.15;;
63320;SDS011;49449;48.800;9.534;2023-11-19T13:01:56;1.10;;;0.80;;
63320;SDS011;49449;48.800;9.534;2023-11-19T13:04:29;1.45;;;1.35;;
63320;SDS011;49449;48.800;9.534;2023-11-19T13:06:57;0.98;;;0.85;;
63320;SDS011;49449;48.800;9.534;2023-11-19T13:09:28;0.77;;;0.68;;
63320;SDS011;49449;48.800;9.534;2023-11-19T13:11:57;1.52;;;1.42;;
63320;SDS011;49449;48.800;9.534;2023-11-19T13:14:35;1.23;;;0.85;;
63320;SDS011;49449;48.800;9.534;2023-11-19T13:17:04;1.83;;;1.10;;
63320;SDS011;49449;48.800;9.534;2023-11-19T13:19:34;0.80;;;0.77;;
63320;SDS011;49449;48.800;9.534;2023-11-19T13:22:02;2.03;;;0.88;;
63320;SDS011;49449;48.800;9.534;2023-11-19T13:24:30;1.33;;;1.23;;
63320;SDS011;49449;48.800;9.534;2023-11-19T13:26:57;1.33;;;1.23;;
63320;SDS011;49449;48.800;9.534;2023-11-19T13:29:25;1.63;;;1.02;;
63320;SDS011;49449;48.800;9.534;2023-11-19T13:31:54;1.23;;;0.80;;
63320;SDS011;49449;48.800;9.534;2023-11-19T13:34:22;0.98;;;0.70;;
63320;SDS011;49449;48.800;9.534;2023-11-19T13:36:51;1.40;;;1.30;;
63320;SDS011;49449;48.800;9.534;2023-11-19T13:39:19;1.35;;;1.25;;
63320;SDS011;49449;48.800;9.534;2023-11-19T13:41:49;2.10;;;1.10;;
63320;SDS011;49449;48.800;9.534;2023-11-19T13:44:17;2.03;;;1.17;;
63320;SDS011;49449;48.800;9.534;2023-11-19T13:46:45;1.10;;;0.80;;
63320;SDS011;49449;48.800;9.534;2023-11-19T13:49:13;1.15;;;1.08;;
63320;SDS011;49449;48.800;9.534;2023-11-19T13:51:41;2.47;;;1.42;;
63320;SDS011;49449;48.800;9.534;2023-11-19T13:54:11;1.05;;;0.75;;
63320;SDS011;49449;48.800;9.534;2023-11-19T13:56:40;1.23;;;1.08;;
63320;SDS011;49449;48.800;9.534;2023-11-19T13:59:10;1.13;;;1.02;;
63320;SDS011;49449;48.800;9.534;2023-11-19T14:01:38;1.27;;;1.17;;
63320;SDS011;49449;48.800;9.534;2023-11-19T14:04:06;1.02;;;0.80;;
63320;SDS011;49449;48.800;9.534;2023-11-19T14:06:35;0.88;;;0.88;;
63320;SDS011;49449;48.800;9.534;2023-11-19T14:09:03;1.25;;;1.10;;
63320;SDS011;49449;48.800;9.534;2023-11-19T14:11:33;1.10;;;0.80;;
63320;SDS011;49449;48.800;9.534;2023-11-19T14:14:01;1.52;;;0.73;;
63320;SDS011;49449;48.800;9.534;2023-11-19T14:16:29;1.95;;;1.13;;
63320;SDS011;49449;48.800;9.534;2023-11-19T14:18:58;0.70;;;0.70;;
63320;SDS011;49449;48.800;9.534;2023-11-19T14:21:26;0.90;;;0.60;;
63320;SDS011;49449;48.800;9.534;2023-11-19T14:23:54;1.25;;;1.25;;
63320;SDS011;49449;48.800;9.534;2023-11-19T14:26:22;1.67;;;0.80;;
63320;SDS011;49449;48.800;9.534;2023-11-19T14:28:51;0.77;;;0.70;;
63320;SDS011;49449;48.800;9.534;2023-11-19T14:31:21;0.70;;;0.70;;
63320;SDS011;49449;48.800;9.534;2023-11-19T14:33:49;1.15;;;1.00;;
63320;SDS011;49449;48.800;9.534;2023-11-19T14:36:16;0.70;;;0.70;;
63320;SDS011;49449;48.800;9.534;2023-11-19T14:38:44;3.35;;;0.82;;
63320;SDS011;49449;48.800;9.534;2023-11-19T14:41:12;1.05;;;1.05;;
63320;SDS011;49449;48.800;9.534;2023-11-19T14:43:40;1.60;;;1.50;;
63320;SDS011;49449;48.800;9.534;2023-11-19T14:46:09;1.33;;;0.90;;
63320;SDS011;49449;48.800;9.534;2023-11-19T14:48:37;1.30;;;0.90;;
63320;SDS011;49449;48.800;9.534;2023-11-19T14:51:05;1.17;;;0.85;;
63320;SDS011;49449;48.800;9.534;2023-11-19T14:53:33;1.20;;;1.10;;
63320;SDS011;49449;48.800;9.534;2023-11-19T14:56:01;3.28;;;1.58;;
63320;SDS011;49449;48.800;9.534;2023-11-19T14:58:31;1.65;;;1.55;;
63320;SDS011;49449;48.800;9.534;2023-11-19T15:00:58;1.33;;;1.30;;
63320;SDS011;49449;48.800;9.534;2023-11-19T15:03:28;0.98;;;0.80;;
63320;SDS011;49449;48.800;9.534;2023-11-19T15:05:56;0.93;;;0.88;;
63320;SDS011;49449;48.800;9.534;2023-11-19T15:08:25;2.05;;;1.52;;